Jon Santiago

Recruteur - Las Palmas
14 Oct 2027
Jeudi
Processus

Personnalité

Adaptabilité (1) Ambition (16) Controverse (1) Loyauté (14) Pression (3) Professionnalisme (11) Sportivité (10) Tempérament (9)

Profil

Style d'entraînement Démocratique
Diplôme Continental Pro
Détermination 13
Gestion des joueurs 9
Motivation 6
Discipline 4
Satisfaction professionnelle
42%
Fatigue
0%
Rôle Recruteur
Salaire 21.2K p/s
Contrat 14.03.2029

Performance

Comportement Bon
Efficacité de l'entraînement
15%
Développement des joueurs
20%
Prévention des blessures
60%
Mise en place tactique
50%

Événements récents

A participé à une réunion de recrutement maintenant
A recommandé une cible de transfert maintenant
A recommandé une cible de transfert maintenant
A recommandé une cible de transfert maintenant
A recommandé une cible de transfert 7j
A recommandé une cible de transfert 7j
A recommandé une cible de transfert 7j
A observé un match 7j

Suivi en cours

98
Joueur Club Statut Capacité Confiance Observé Dernière observation Dernier vote
Mohamed Bolivar Barranquilla Actif 94 / 100 40% 1 23.08.2027 -
Ignacio Fernández Boston River Actif 89 / 95 40% 1 23.08.2027 -
Gift Udoh Ikorodu City Actif 88 / 98 40% 1 17.08.2027 -
Eddy Kouadio Crotone Actif 108 / 116 40% 1 17.08.2027 -
Agustín Obregón River Plate Actif 108 / 126 40% 1 17.08.2027 -
Davide Bartesaghi AC Milan Actif 135 / 137 40% 6 09.08.2027 -
Jan Bürger Gillingham Actif 114 / 127 40% 4 09.08.2027 -
Kazunari Kita Real Sociedad Actif 106 / 112 40% 2 19.07.2027 -
Izan Merino Málaga Actif 129 / 129 40% 4 19.07.2027 -
David Valencia Alianza Petrolera Négociation 122 / 135 40% 1 19.07.2027 -
Josh King Chelsea Actif 141 / 150 40% 3 28.06.2027 -
Ricky Atletico Venezuela Actif 92 / 96 40% 1 28.06.2027 -
Gadiel Paoli River Plate Actif 88 / 99 40% 1 28.06.2027 -
Pedro de la Vega FC Dallas Négociation 133 / 134 66% 1 01.06.2027 Approuver
Konstantin Tyukavin Inter Actif 132 / 133 66% 1 01.06.2027 Approuver
Sampson Dweh Anderlecht Négociation 133 / 134 66% 1 01.06.2027 Approuver
Martin Cedidla Spartak Moscow Actif 131 / 132 66% 1 01.06.2027 Approuver
Léo Scienza Southampton Actif 136 / 136 66% 1 01.06.2027 Approuver
Ramiro Buratti River Plate Actif 96 / 106 40% 1 01.06.2027 -
Víctor Mollejo Burgos Actif 122 / 120 40% 1 31.05.2027 -
Elijah Adebayo Luton Town Actif 128 / 127 40% 1 31.05.2027 -
Morgan Whittaker Middlesbrough Actif 128 / 135 40% 1 31.05.2027 -
Zane Albarus Cambridge United Actif 91 / 100 40% 4 30.05.2027 -
Finley McAllister Grimsby Town Actif 96 / 93 40% 1 30.05.2027 -
Yussif Saidu Zaragoza Actif 121 / 131 40% 4 29.05.2027 -
José Pachuca Puebla Actif 117 / 117 40% 6 28.05.2027 -
Keagan Tau Ajax Cape Town Actif 102 / 106 40% 2 28.05.2027 -
Jon Garro Real Sociedad Actif 91 / 88 40% 3 27.05.2027 -
Christos Mouzakitis Hull City Actif 129 / 136 40% 6 26.05.2027 -
Jofre Torrents Ajax Actif 120 / 128 40% 6 26.05.2027 -
Yusi Alavés Actif 133 / 136 40% 2 21.05.2027 -
Dylan Lawlor Cardiff City Actif 112 / 125 40% 1 21.05.2027 -
Ernie Weaver AFC Wimbledon Actif 113 / 118 40% 7 20.05.2027 -
Joel McGregor Swindon Town Actif 89 / 98 40% 2 20.05.2027 -
Riley Owen Trento Actif 100 / 104 40% 5 18.05.2027 -
Sascha Britschgi Padova Négociation 124 / 125 40% 2 16.05.2027 -
João Teixeira Porto Actif 109 / 119 40% 4 16.05.2027 -
Lucas Høgsberg RC Strasbourg Actif 142 / 139 40% 2 16.05.2027 -
Kevin Vazquez Cruz Azul Actif 132 / 149 40% 9 15.05.2027 -
Christ Inao Oulaï Fiorentina Actif 131 / 143 40% 2 14.05.2027 -
Louis Leroux FC Nantes Actif 127 / 124 40% 1 12.05.2027 -
Johan Manzambi Newcastle United Actif 135 / 142 40% 1 12.05.2027 -
Pietro Reggiori Pro Patria Actif 93 / 102 40% 3 10.05.2027 -
Darryl Bakola Padova Actif 102 / 113 40% 1 05.05.2027 -
Matías Gómez Granada Actif 118 / 115 40% 2 02.05.2027 -
Tiago Freitas Benfica Actif 105 / 113 40% 2 29.04.2027 -
Toni Tamarit Alverca Actif 115 / 122 40% 2 28.04.2027 -
Daniel Costa Sporting CP Actif 94 / 104 40% 2 27.04.2027 -
Finn Jeltsch VfB Stuttgart Actif 130 / 145 40% 2 27.04.2027 -
Cheveyo Tsawa Club Brugge Actif 116 / 121 40% 3 22.04.2027 -
Noah Nartey Olympique Lyonnais Actif 134 / 131 40% 1 21.04.2027 -
Juan Giménez Celta Actif 114 / 124 40% 1 16.04.2027 -
Martim Cunha Porto Actif 106 / 111 40% 2 15.04.2027 -
Caleb Yirenkyi Coventry City Actif 141 / 140 40% 3 12.04.2027 -
Lucas Agazzi Defensor Sporting Actif 114 / 137 40% 1 12.04.2027 -
Matvey Kislyak CSKA Moscow Actif 139 / 133 40% 1 08.04.2027 -
James Dornelly Peterborough United Actif 106 / 110 40% 3 05.04.2027 -
Bernardo Lima Porto Actif 91 / 104 40% 1 02.04.2027 -
David Ozoh Derby County Actif 118 / 128 40% 1 01.04.2027 -
Percy Jali Free State Stars Actif 94 / 98 40% 2 28.03.2027 -
Ibrahim Maza Bayer Leverkusen Actif 149 / 146 40% 1 27.03.2027 -
Gonçalo Oliveira Benfica Actif 111 / 120 40% 1 18.03.2027 -
Guillaume Restes Toulouse FC Actif 135 / 145 40% 1 12.01.2027 -
Agustín Albrini Independiente Rivadavia Actif 91 / 101 40% 1 12.01.2027 -
Francisco Álvarez Argentinos Juniors Actif 133 / 131 40% 2 09.12.2026 -
José Hurtado Bragantino Actif 118 / 115 40% 1 09.12.2026 -
Aidan Morris Middlesbrough Actif 128 / 129 40% 1 09.12.2026 -
Dara O'Shea Ipswich Town Actif 133 / 137 40% 2 21.11.2026 -
Felipe Peña Biafore Lanús Actif 126 / 135 40% 2 21.11.2026 -
Jesús Orozco Chiquete Cruz Azul Actif 131 / 136 40% 2 21.11.2026 -
Santiago González Tigre Actif 126 / 120 40% 2 18.11.2026 -
Welington Southampton Actif 123 / 125 40% 1 18.11.2026 -
Joaquim Tigres Actif 131 / 135 40% 3 10.11.2026 -
Alexis Gutiérrez Club America Actif 133 / 125 40% 1 10.11.2026 -
Alejandro Francés Girona Actif 125 / 136 40% 1 10.11.2026 -
Leandro Lozano Boca Juniors Actif 124 / 119 40% 2 06.11.2026 -
Israel Reyes CSKA Moscow Actif 146 / 128 40% 1 06.11.2026 -
Milan van Ewijk Mansfield Town Actif 134 / 128 40% 1 05.11.2026 -
Víctor Chust Elche Actif 137 / 127 40% 1 05.11.2026 -
Adalberto Carrasquilla Pumas UNAM Actif 121 / 136 40% 3 03.11.2026 -
Matías Pérez Racing Club Actif 131 / 115 40% 1 03.11.2026 -
Florentino Luís Ipswich Town Actif 140 / 141 40% 1 12.10.2026 -
Ramón Juárez Club America Actif 133 / 142 40% 1 12.10.2026 -
Federico Navarro Rosario Central Actif 116 / 134 40% 1 10.10.2026 -
Ryan Sessegnon Fulham Actif 151 / 144 40% 1 10.10.2026 -
Marco Pellegrino Boca Juniors Actif 127 / 133 40% 1 09.10.2026 -
Fran Beltrán Girona Actif 146 / 138 40% 1 07.10.2026 -
Lautaro Blanco Boca Juniors Actif 131 / 124 40% 1 06.10.2026 -
Nazareno Colombo Racing Club Actif 123 / 128 40% 1 06.10.2026 -
Flavien-Enzo Boyomo Osasuna Actif 153 / 151 40% 1 05.10.2026 -
Andrés Gómez Vasco da Gama Actif 138 / 142 40% 1 15.09.2026 -
Noah Sadiki Sunderland Actif 134 / 146 40% 1 15.09.2026 -
Alan Lescano Argentinos Juniors Actif 129 / 138 40% 1 14.09.2026 -
Rémi Lemoine Chamois Niortais Actif 154 / 151 40% 1 14.09.2026 -
Marcel Ruiz RC Lens Actif 145 / 135 40% 1 11.09.2026 -
Rico Lewis Manchester City Actif 151 / 150 40% 1 07.09.2026 -
Christantus Uche Getafe Actif 136 / 144 40% 1 07.09.2026 -
Jadon Sancho Manchester United Actif 149 / 152 40% 1 07.09.2026 -